createdAt,value
2018-09-04T00:01:02.354Z,101246.70
2018-09-04T00:03:35.241Z,101243.73
2018-09-04T00:06:08.288Z,101239.89
2018-09-04T00:08:41.721Z,101240.98
2018-09-04T00:11:14.710Z,101238.27
2018-09-04T00:13:43.598Z,101237.70
2018-09-04T00:16:12.492Z,101237.09
2018-09-04T00:18:41.663Z,101228.92
2018-09-04T00:21:10.558Z,101228.09
2018-09-04T00:23:39.689Z,101224.02
2018-09-04T00:26:08.584Z,101226.20
2018-09-04T00:28:39.554Z,101227.56
2018-09-04T00:31:08.579Z,101232.16
2018-09-04T00:33:39.478Z,101231.32
2018-09-04T00:36:09.210Z,101231.54
2018-09-04T00:38:38.301Z,101224.98
2018-09-04T00:41:25.840Z,101223.33
2018-09-04T00:44:02.821Z,101223.90
2018-09-04T00:46:31.737Z,101212.43
2018-09-04T00:49:00.641Z,101212.67
2018-09-04T00:51:31.553Z,101212.39
2018-09-04T00:57:06.712Z,101221.91
2018-09-04T00:59:35.591Z,101223.82
2018-09-04T01:02:04.479Z,101218.64
2018-09-04T01:04:41.577Z,101225.14
2018-09-04T01:07:12.078Z,101220.23
2018-09-04T01:09:41.147Z,101220.32
2018-09-04T01:12:10.284Z,101225.58
2018-09-04T01:14:41.515Z,101216.44
2018-09-04T01:17:10.608Z,101217.31
2018-09-04T01:19:39.745Z,101217.31
2018-09-04T01:22:08.650Z,101216.81
2018-09-04T01:24:37.596Z,101212.46
2018-09-04T01:27:06.501Z,101219.83
2018-09-04T01:29:35.457Z,101212.42
2018-09-04T01:32:04.367Z,101219.48
2018-09-04T01:34:33.271Z,101215.65
2018-09-04T01:37:02.172Z,101222.48
2018-09-04T01:39:32.103Z,101221.92
2018-09-04T01:42:01.150Z,101219.42
2018-09-04T01:44:30.060Z,101228.35
2018-09-04T01:46:58.959Z,101223.50
2018-09-04T01:49:27.878Z,101218.34
2018-09-04T01:51:56.942Z,101219.73
2018-09-04T01:54:25.816Z,101225.41
2018-09-04T01:56:54.720Z,101227.59
2018-09-04T01:59:38.337Z,101225.11
2018-09-04T02:02:07.232Z,101229.14
2018-09-04T02:04:36.123Z,101225.92
2018-09-04T02:07:09.961Z,101219.38
2018-09-04T02:09:39.865Z,101221.16
2018-09-04T02:12:10.809Z,101218.75
2018-09-04T02:14:39.824Z,101214.91
2018-09-04T02:17:08.757Z,101220.91
2018-09-04T02:19:37.697Z,101221.69
2018-09-04T02:22:06.644Z,101222.45
2018-09-04T02:24:35.525Z,101225.45
2018-09-04T02:27:21.447Z,101229.05
2018-09-04T02:30:02.596Z,101228.52
2018-09-04T02:32:31.508Z,101229.07
2018-09-04T02:35:00.485Z,101226.61
2018-09-04T02:37:29.539Z,101229.05
2018-09-04T02:40:09.677Z,101229.86
2018-09-04T02:42:44.210Z,101228.16
2018-09-04T02:45:22.914Z,101227.84
2018-09-04T02:47:51.805Z,101225.72
2018-09-04T02:50:21.207Z,101223.55
2018-09-04T02:52:57.068Z,101220.88
2018-09-04T02:55:36.710Z,101214.57
2018-09-04T02:58:05.824Z,101217.08
2018-09-04T03:00:35.791Z,101219.59
2018-09-04T03:03:08.613Z,101213.86
2018-09-04T03:05:37.787Z,101209.47
2018-09-04T03:08:06.839Z,101211.42
2018-09-04T03:10:35.735Z,101207.63
2018-09-04T03:13:08.582Z,101211.97
2018-09-04T03:18:37.198Z,101192.82
2018-09-04T03:21:14.018Z,101189.91
2018-09-04T03:23:42.913Z,101190.50
2018-09-04T03:26:11.777Z,101189.16
2018-09-04T03:28:48.117Z,101193.53
2018-09-04T03:31:17.195Z,101192.42
2018-09-04T03:33:46.113Z,101191.84
2018-09-04T03:36:15.006Z,101194.03
2018-09-04T03:38:43.917Z,101195.39
2018-09-04T03:41:15.122Z,101201.92
2018-09-04T03:43:44.058Z,101205.78
2018-09-04T03:46:20.940Z,101200.67
2018-09-04T03:48:49.898Z,101202.87
2018-09-04T03:51:38.932Z,101204.76
2018-09-04T03:54:08.944Z,101208.29
2018-09-04T03:56:43.277Z,101201.15
2018-09-04T03:59:16.276Z,101202.48
2018-09-04T04:01:46.822Z,101206.62
2018-09-04T04:04:15.789Z,101205.43
2018-09-04T04:06:44.678Z,101210.37
2018-09-04T04:09:13.704Z,101211.20
2018-09-04T04:11:42.604Z,101207.98
2018-09-04T04:14:12.568Z,101207.23
2018-09-04T04:16:47.124Z,101209.09
2018-09-04T04:19:22.865Z,101209.61
2018-09-04T04:21:52.911Z,101215.63
2018-09-04T04:24:35.026Z,101218.34
2018-09-04T04:27:11.443Z,101221.64
2018-09-04T04:29:40.367Z,101226.80
2018-09-04T04:32:12.841Z,101228.40
2018-09-04T04:34:45.521Z,101229.45
2018-09-04T04:37:14.425Z,101228.11
2018-09-04T04:39:59.986Z,101221.08
2018-09-04T04:42:29.014Z,101233.63
2018-09-04T04:44:57.931Z,101228.16
2018-09-04T04:47:32.294Z,101231.98
2018-09-04T04:50:01.303Z,101238.45
2018-09-04T04:52:30.229Z,101238.75
2018-09-04T04:54:59.110Z,101240.36
2018-09-04T04:57:28.002Z,101237.36
2018-09-04T05:00:02.574Z,101240.11
2018-09-04T05:02:31.822Z,101237.66
2018-09-04T05:05:02.817Z,101241.18
2018-09-04T05:07:36.875Z,101244.92
2018-09-04T05:10:19.286Z,101248.98
2018-09-04T05:12:48.491Z,101248.67
2018-09-04T05:15:17.483Z,101245.71
2018-09-04T05:17:51.992Z,101245.73
2018-09-04T05:20:24.211Z,101238.91
2018-09-04T05:23:00.733Z,101241.91
2018-09-04T05:25:36.248Z,101238.65
2018-09-04T05:28:05.277Z,101240.50
2018-09-04T05:30:57.194Z,101248.67
2018-09-04T05:33:32.185Z,101243.25
2018-09-04T05:36:03.137Z,101246.23
2018-09-04T05:38:36.685Z,101254.98
2018-09-04T05:41:12.215Z,101253.38
2018-09-04T05:43:59.624Z,101252.80
2018-09-04T05:46:39.015Z,101258.30
2018-09-04T05:49:08.533Z,101260.53
2018-09-04T05:51:41.593Z,101262.14
2018-09-04T05:54:10.590Z,101263.30
2018-09-04T05:56:53.107Z,101267.41
2018-09-04T05:59:22.042Z,101267.14
2018-09-04T06:01:52.029Z,101273.45
2018-09-04T06:04:28.189Z,101270.75
2018-09-04T06:06:58.104Z,101276.80
2018-09-04T06:09:35.405Z,101278.66
2018-09-04T06:12:05.413Z,101281.22
2018-09-04T06:14:46.983Z,101282.36
2018-09-04T06:17:17.907Z,101277.95
2018-09-04T06:20:03.346Z,101285.36
2018-09-04T06:22:39.381Z,101282.10
2018-09-04T06:25:10.338Z,101284.37
2018-09-04T06:27:46.808Z,101278.10
2018-09-04T06:30:40.065Z,101282.21
2018-09-04T06:33:17.145Z,101283.92
2018-09-04T06:35:46.031Z,101280.66
2018-09-04T06:38:20.641Z,101278.53
2018-09-04T06:40:59.357Z,101275.29
2018-09-04T06:43:34.976Z,101281.06
2018-09-04T06:46:08.104Z,101288.17
2018-09-04T06:48:37.380Z,101296.09
2018-09-04T06:51:09.724Z,101287.95
2018-09-04T06:53:44.408Z,101293.44
2018-09-04T06:56:21.594Z,101293.22
2018-09-04T06:58:50.582Z,101296.22
2018-09-04T07:01:20.463Z,101295.73
2018-09-04T07:03:49.571Z,101301.20
2018-09-04T07:06:26.692Z,101297.11
2018-09-04T07:09:08.358Z,101300.38
2018-09-04T07:11:48.967Z,101303.44
2018-09-04T07:14:22.241Z,101299.64
2018-09-04T07:16:52.779Z,101303.78
2018-09-04T07:19:24.987Z,101295.63
2018-09-04T07:21:56.020Z,101299.17
2018-09-04T07:24:29.153Z,101295.67
2018-09-04T07:27:04.495Z,101292.41
2018-09-04T07:29:34.358Z,101295.41
2018-09-04T07:32:03.257Z,101294.06
2018-09-04T07:34:32.157Z,101293.79
2018-09-04T07:37:01.056Z,101297.09
2018-09-04T07:39:35.414Z,101295.75
2018-09-04T07:42:07.736Z,101287.86
2018-09-04T07:44:49.125Z,101292.25
2018-09-04T07:47:18.216Z,101293.35
2018-09-04T07:49:47.205Z,101293.09
2018-09-04T07:52:16.378Z,101301.31
2018-09-04T07:57:48.972Z,101307.64
2018-09-04T08:00:17.814Z,101307.09
2018-09-04T08:02:46.864Z,101299.52
2018-09-04T08:05:15.779Z,101305.80
2018-09-04T08:07:44.684Z,101312.06
2018-09-04T08:10:19.815Z,101303.35
2018-09-04T08:12:48.692Z,101302.28
2018-09-04T08:15:17.626Z,101303.66
2018-09-04T08:17:48.809Z,101299.28
2018-09-04T08:20:27.722Z,101306.12
2018-09-04T08:22:56.791Z,101313.77
2018-09-04T08:25:26.501Z,101317.05
2018-09-04T08:27:55.458Z,101315.69
2018-09-04T08:30:24.732Z,101314.33
2018-09-04T08:32:53.690Z,101316.22
2018-09-04T08:35:27.515Z,101319.52
2018-09-04T08:37:59.494Z,101323.89
2018-09-04T08:40:29.534Z,101329.08
2018-09-04T08:48:53.080Z,101318.73
2018-09-04T08:51:22.039Z,101322.55
2018-09-04T08:53:50.905Z,101320.91
2018-09-04T08:56:19.972Z,101321.99
2018-09-04T08:58:48.858Z,101319.81
2018-09-04T09:01:17.748Z,101317.36
2018-09-04T09:06:45.228Z,101308.63
2018-09-04T09:09:14.136Z,101307.80
2018-09-04T09:11:49.180Z,101300.67
2018-09-04T09:14:18.107Z,101300.39
2018-09-04T09:16:47.060Z,101304.74
2018-09-04T09:19:26.319Z,101299.55
2018-09-04T09:21:55.221Z,101299.25
2018-09-04T09:24:24.123Z,101297.59
2018-09-04T09:26:53.013Z,101297.06
2018-09-04T09:29:21.910Z,101297.34
2018-09-04T09:31:56.515Z,101306.08
2018-09-04T09:34:25.427Z,101306.91
2018-09-04T09:36:54.565Z,101306.08
2018-09-04T09:39:23.789Z,101312.91
2018-09-04T09:42:06.139Z,101308.00
2018-09-04T09:44:35.140Z,101308.81
2018-09-04T09:47:10.025Z,101307.72
2018-09-04T09:49:42.251Z,101312.64
2018-09-04T09:52:27.711Z,101311.27
2018-09-04T09:55:01.434Z,101309.09
2018-09-04T09:57:43.285Z,101303.05
2018-09-04T10:00:31.117Z,101300.05
2018-09-04T10:03:04.056Z,101303.30
2018-09-04T10:08:33.201Z,101303.28
2018-09-04T10:11:02.263Z,101303.02
2018-09-04T10:13:49.324Z,101301.61
2018-09-04T10:16:22.659Z,101301.34
2018-09-04T10:19:02.099Z,101302.70
2018-09-04T10:21:31.244Z,101296.91
2018-09-04T10:24:04.054Z,101301.04
2018-09-04T10:26:40.081Z,101299.98
2018-09-04T10:29:14.789Z,101298.60
2018-09-04T10:31:50.364Z,101298.86
2018-09-04T10:34:19.257Z,101290.09
2018-09-04T10:36:48.169Z,101290.34
2018-09-04T10:39:28.002Z,101283.98
2018-09-04T10:41:56.887Z,101282.33
2018-09-04T10:44:28.207Z,101285.20
2018-09-04T10:46:57.039Z,101274.78
2018-09-04T10:49:25.957Z,101280.52
2018-09-04T10:51:54.831Z,101268.94
2018-09-04T10:54:23.715Z,101270.56
2018-09-04T10:56:52.683Z,101268.56
2018-09-04T10:59:21.587Z,101266.72
2018-09-04T11:01:55.529Z,101266.08
2018-09-04T11:04:28.251Z,101269.72
2018-09-04T11:06:57.174Z,101272.68
2018-09-04T11:09:26.227Z,101272.20
2018-09-04T11:17:56.058Z,101272.88
2018-09-04T11:20:24.968Z,101270.00
2018-09-04T11:23:13.592Z,101271.09
2018-09-04T11:25:45.856Z,101272.31
2018-09-04T11:28:14.959Z,101264.86
2018-09-04T11:30:43.854Z,101261.88
2018-09-04T11:33:37.078Z,101269.03
2018-09-04T11:36:15.965Z,101264.56
2018-09-04T11:38:59.188Z,101268.59
2018-09-04T11:41:28.213Z,101266.06
2018-09-04T11:43:57.176Z,101270.27
2018-09-04T11:46:44.710Z,101264.00
2018-09-04T11:49:17.342Z,101269.39
2018-09-04T11:52:04.946Z,101264.27
2018-09-04T11:54:40.981Z,101258.15
2018-09-04T11:57:14.345Z,101258.55
2018-09-04T11:59:44.734Z,101260.57
2018-09-04T12:02:44.881Z,101258.69
2018-09-04T12:05:13.784Z,101256.72
2018-09-04T12:07:42.821Z,101258.39
2018-09-04T12:10:11.682Z,101255.67
2018-09-04T12:13:00.439Z,101251.66
2018-09-04T12:15:41.992Z,101255.40
2018-09-04T12:18:17.218Z,101253.68
2018-09-04T12:20:54.255Z,101253.57
2018-09-04T12:23:27.906Z,101252.83
2018-09-04T12:26:06.536Z,101252.20
2018-09-04T12:28:38.628Z,101257.00
2018-09-04T12:31:09.867Z,101251.28
2018-09-04T12:33:44.120Z,101251.02
2018-09-04T12:36:16.768Z,101242.28
2018-09-04T12:39:06.435Z,101242.02
2018-09-04T12:41:50.061Z,101245.21
2018-09-04T12:44:23.074Z,101248.62
2018-09-04T12:46:57.083Z,101246.66
2018-09-04T12:49:26.056Z,101251.87
2018-09-04T12:51:57.025Z,101240.72
2018-09-04T12:54:25.961Z,101240.03
2018-09-04T12:56:54.849Z,101234.45
2018-09-04T12:59:23.698Z,101232.75
2018-09-04T13:01:52.566Z,101234.67
2018-09-04T13:04:22.465Z,101230.23
2018-09-04T13:06:55.177Z,101231.21
2018-09-04T13:09:24.058Z,101231.75
2018-09-04T13:12:05.343Z,101227.90
2018-09-04T13:17:27.289Z,101225.41
2018-09-04T13:19:57.187Z,101212.15
2018-09-04T13:22:39.111Z,101216.17
2018-09-04T13:25:08.066Z,101222.11
2018-09-04T13:27:47.890Z,101218.34
2018-09-04T13:30:20.193Z,101215.64
2018-09-04T13:33:01.985Z,101215.92
2018-09-04T13:35:36.219Z,101211.27
2018-09-04T13:38:09.411Z,101208.56
2018-09-04T13:40:42.544Z,101207.38
2018-09-04T13:43:11.527Z,101204.77
2018-09-04T13:45:44.717Z,101206.94
2018-09-04T13:48:13.675Z,101199.34
2018-09-04T13:50:44.604Z,101192.94
2018-09-04T13:56:06.877Z,101199.33
2018-09-04T13:58:35.846Z,101197.67
2018-09-04T14:01:10.404Z,101202.04
2018-09-04T14:03:43.258Z,101199.98
2018-09-04T14:06:16.167Z,101203.78
2018-09-04T14:08:45.136Z,101202.73
2018-09-04T14:11:14.096Z,101208.67
2018-09-04T14:13:43.096Z,101204.76
2018-09-04T14:16:17.741Z,101201.48
2018-09-04T14:18:54.948Z,101202.20
2018-09-04T14:21:33.858Z,101201.73
2018-09-04T14:24:04.002Z,101204.16
2018-09-04T14:26:33.000Z,101202.25
2018-09-04T14:29:07.566Z,101197.95
2018-09-04T14:31:33.820Z,101205.00
2018-09-04T14:34:03.825Z,101196.08
2018-09-04T14:36:33.115Z,101196.48
2018-09-04T14:39:07.774Z,101202.56
2018-09-04T14:41:41.135Z,101196.28
2018-09-04T14:44:30.543Z,101198.70
2018-09-04T14:47:01.458Z,101201.20
2018-09-04T14:49:30.411Z,101199.35
2018-09-04T14:51:59.360Z,101198.50
2018-09-04T14:54:35.179Z,101198.87
2018-09-04T14:57:04.176Z,101198.30
2018-09-04T14:59:36.476Z,101203.16
2018-09-04T15:02:05.376Z,101201.62
2018-09-04T15:04:38.882Z,101205.27
2018-09-04T15:07:19.363Z,101205.65
2018-09-04T15:09:55.176Z,101204.95
2018-09-04T15:12:34.089Z,101205.34
2018-09-04T15:15:13.959Z,101211.16
2018-09-04T15:17:56.370Z,101206.12
2018-09-04T15:20:26.699Z,101207.88
2018-09-04T15:22:56.664Z,101207.23
2018-09-04T15:25:26.695Z,101209.55
2018-09-04T15:27:57.613Z,101209.30
2018-09-04T15:30:27.558Z,101203.16
2018-09-04T15:32:56.496Z,101198.19
2018-09-04T15:35:25.557Z,101202.20
2018-09-04T15:37:54.558Z,101200.77
2018-09-04T15:40:30.757Z,101202.58
2018-09-04T15:42:59.928Z,101204.84
2018-09-04T15:45:30.325Z,101208.88
2018-09-04T15:48:00.752Z,101205.59
2018-09-04T15:50:29.907Z,101200.09
2018-09-04T15:52:58.856Z,101202.48
2018-09-04T15:58:21.619Z,101216.41
2018-09-04T16:00:52.578Z,101212.83
2018-09-04T16:03:23.691Z,101214.70
2018-09-04T16:05:53.648Z,101226.23
2018-09-04T16:08:26.233Z,101270.86
2018-09-04T16:10:55.488Z,101270.22
2018-09-04T16:13:27.960Z,101274.94
2018-09-04T16:16:02.816Z,101282.39
2018-09-04T16:18:51.442Z,101275.15
2018-09-04T16:21:22.417Z,101276.63
2018-09-04T16:23:53.372Z,101278.67
2018-09-04T16:26:41.984Z,101269.80
2018-09-04T16:29:14.783Z,101257.45
2018-09-04T16:31:51.042Z,101253.91
2018-09-04T16:34:25.483Z,101253.03
2018-09-04T16:36:56.349Z,101252.96
2018-09-04T16:39:26.665Z,101260.33
2018-09-04T16:41:58.890Z,101254.67
2018-09-04T16:44:28.911Z,101260.14
2018-09-04T16:47:00.971Z,101261.72
2018-09-04T16:49:34.774Z,101255.41
2018-09-04T16:52:03.685Z,101252.94
2018-09-04T16:54:32.612Z,101253.77
2018-09-04T16:57:01.587Z,101252.64
2018-09-04T16:59:30.753Z,101251.27
2018-09-04T17:02:03.409Z,101254.02
2018-09-04T17:04:33.365Z,101247.95
2018-09-04T17:07:06.936Z,101248.82
2018-09-04T17:09:37.889Z,101252.39
2018-09-04T17:12:06.815Z,101256.00
2018-09-04T17:14:36.714Z,101253.77
2018-09-04T17:17:06.719Z,101256.51
2018-09-04T17:19:42.136Z,101259.25
2018-09-04T17:24:50.443Z,101259.00
2018-09-04T17:27:20.409Z,101260.94
2018-09-04T17:29:49.406Z,101257.92
2018-09-04T17:32:23.633Z,101255.75
2018-09-04T17:34:55.574Z,101258.78
2018-09-04T17:37:25.517Z,101259.05
2018-09-04T17:39:54.870Z,101262.95
2018-09-04T17:42:27.062Z,101262.97
2018-09-04T17:44:55.969Z,101268.72
2018-09-04T17:47:27.929Z,101273.98
2018-09-04T17:49:57.916Z,101281.09
2018-09-04T17:52:27.836Z,101292.92
2018-09-04T17:55:02.104Z,101293.19
2018-09-04T17:57:32.184Z,101301.98
2018-09-04T18:00:13.254Z,101304.73
2018-09-04T18:02:42.207Z,101316.86
2018-09-04T18:05:16.869Z,101319.13
2018-09-04T18:07:49.327Z,101315.59
2018-09-04T18:10:22.020Z,101329.28
2018-09-04T18:12:54.035Z,101322.99
2018-09-04T18:15:24.961Z,101321.92
2018-09-04T18:17:53.992Z,101314.55
2018-09-04T18:20:30.943Z,101311.02
2018-09-04T18:23:01.874Z,101302.25
2018-09-04T18:25:32.916Z,101309.10
2018-09-04T18:28:01.968Z,101309.36
2018-09-04T18:30:32.381Z,101308.80
2018-09-04T18:33:05.628Z,101302.52
2018-09-04T18:35:35.683Z,101288.84
2018-09-04T18:38:04.864Z,101299.53
2018-09-04T18:40:44.297Z,101306.36
2018-09-04T18:43:13.465Z,101309.10
2018-09-04T18:45:50.277Z,101306.64
2018-09-04T18:48:23.473Z,101309.91
2018-09-04T18:50:58.989Z,101306.10
2018-09-04T18:53:27.961Z,101304.23
2018-09-04T18:55:56.838Z,101304.24
2018-09-04T18:58:36.528Z,101300.14
2018-09-04T19:01:05.539Z,101295.48
2018-09-04T19:03:44.029Z,101304.80
2018-09-04T19:06:14.914Z,101299.05
2018-09-04T19:08:45.025Z,101301.78
2018-09-04T19:11:28.801Z,101307.84
2018-09-04T19:13:59.826Z,101303.73
2018-09-04T19:16:49.041Z,101304.30
2018-09-04T19:22:25.345Z,101298.02
2018-09-04T19:25:00.271Z,101299.39
2018-09-04T19:27:29.673Z,101303.78
2018-09-04T19:30:02.139Z,101301.86
2018-09-04T19:32:35.786Z,101304.89
2018-09-04T19:37:58.636Z,101303.53
2018-09-04T19:40:38.738Z,101301.64
2018-09-04T19:43:08.691Z,101307.41
2018-09-04T19:46:00.575Z,101314.52
2018-09-04T19:48:29.474Z,101308.77
2018-09-04T19:51:12.088Z,101318.40
2018-09-04T19:53:57.815Z,101318.41
2018-09-04T19:59:26.078Z,101322.21
2018-09-04T20:01:56.306Z,101318.67
2018-09-04T20:04:26.523Z,101322.50
2018-09-04T20:06:56.178Z,101320.86
2018-09-04T20:09:27.281Z,101324.76
2018-09-04T20:11:56.661Z,101328.57
2018-09-04T20:17:18.831Z,101335.70
2018-09-04T20:19:54.468Z,101338.67
2018-09-04T20:22:29.150Z,101346.64
2018-09-04T20:25:05.946Z,101346.89
2018-09-04T20:27:47.345Z,101343.08
2018-09-04T20:30:26.961Z,101345.01
2018-09-04T20:32:55.902Z,101343.89
2018-09-04T20:35:25.837Z,101348.84
2018-09-04T20:37:59.759Z,101351.58
2018-09-04T20:43:34.979Z,101354.84
2018-09-04T20:46:09.642Z,101352.37
2018-09-04T20:48:39.676Z,101351.58
2018-09-04T20:51:08.624Z,101353.22
2018-09-04T20:53:37.570Z,101355.96
2018-09-04T20:56:06.885Z,101354.31
2018-09-04T20:58:47.239Z,101350.48
2018-09-04T21:01:30.613Z,101358.14
2018-09-04T21:04:10.870Z,101350.49
2018-09-04T21:06:45.982Z,101356.21
2018-09-04T21:09:49.212Z,101353.23
2018-09-04T21:12:20.190Z,101353.23
2018-09-04T21:17:46.060Z,101351.02
2018-09-04T21:20:15.049Z,101347.20
2018-09-04T21:22:45.029Z,101349.13
2018-09-04T21:28:23.378Z,101350.21
2018-09-04T21:30:53.464Z,101348.84
2018-09-04T21:33:22.720Z,101336.82
2018-09-04T21:36:03.011Z,101344.43
2018-09-04T21:38:32.024Z,101341.98
2018-09-04T21:41:13.020Z,101345.23
2018-09-04T21:43:42.096Z,101340.05
2018-09-04T21:46:11.300Z,101344.70
2018-09-04T21:48:41.619Z,101338.40
2018-09-04T21:51:10.764Z,101347.72
2018-09-04T21:53:47.124Z,101339.23
2018-09-04T21:56:21.755Z,101335.66
2018-09-04T21:58:50.849Z,101349.34
2018-09-04T22:01:19.735Z,101346.88
2018-09-04T22:03:49.874Z,101353.19
2018-09-04T22:06:18.808Z,101344.15
2018-09-04T22:08:58.644Z,101350.45
2018-09-04T22:11:44.041Z,101347.16
2018-09-04T22:14:12.966Z,101349.09
2018-09-04T22:16:41.924Z,101347.72
2018-09-04T22:19:10.822Z,101343.05
2018-09-04T22:24:46.188Z,101352.06
2018-09-04T22:27:25.198Z,101349.61
2018-09-04T22:29:54.087Z,101345.22
2018-09-04T22:32:23.193Z,101346.07
2018-09-04T22:35:04.451Z,101345.52
2018-09-04T22:37:35.391Z,101337.59
2018-09-04T22:40:23.073Z,101335.41
2018-09-04T22:42:51.982Z,101342.24
2018-09-04T22:45:20.929Z,101332.92
2018-09-04T22:47:49.887Z,101337.84
2018-09-04T22:50:24.233Z,101334.83
2018-09-04T22:52:53.177Z,101336.48
2018-09-04T22:55:22.113Z,101332.37
2018-09-04T22:57:53.151Z,101336.19
2018-09-04T23:00:27.213Z,101331.00
2018-09-04T23:02:58.209Z,101335.91
2018-09-04T23:05:27.889Z,101337.55
2018-09-04T23:07:56.793Z,101333.70
2018-09-04T23:10:42.013Z,101337.80
2018-09-04T23:13:23.517Z,101333.96
2018-09-04T23:15:52.475Z,101337.25
2018-09-04T23:18:21.419Z,101333.43
2018-09-04T23:20:50.648Z,101335.33
2018-09-04T23:23:19.577Z,101327.41
2018-09-04T23:25:55.446Z,101324.95
2018-09-04T23:28:24.373Z,101319.22
2018-09-04T23:30:53.254Z,101322.50
2018-09-04T23:33:22.184Z,101317.56
2018-09-04T23:35:51.058Z,101314.01
2018-09-04T23:38:23.389Z,101330.39
2018-09-04T23:40:52.961Z,101329.59
2018-09-04T23:43:21.924Z,101317.02
2018-09-04T23:45:50.781Z,101325.73
2018-09-04T23:48:25.881Z,101323.83
2018-09-04T23:50:54.768Z,101328.20
2018-09-04T23:53:23.671Z,101327.09
2018-09-04T23:55:52.569Z,101326.28
2018-09-04T23:58:27.064Z,101329.55
